sensor_id;sensor_type;location;lat;lon;timestamp;P1;durP1;ratioP1;P2;durP2;ratioP2
27209;SDS011;14721;42.668;23.386;2024-01-06T00:02:15;90.60;;;41.33;;
27209;SDS011;14721;42.668;23.386;2024-01-06T00:05:11;91.07;;;41.27;;
27209;SDS011;14721;42.668;23.386;2024-01-06T00:07:57;85.33;;;38.57;;
27209;SDS011;14721;42.668;23.386;2024-01-06T00:11:01;70.10;;;33.77;;
27209;SDS011;14721;42.668;23.386;2024-01-06T00:13:50;71.47;;;34.60;;
27209;SDS011;14721;42.668;23.386;2024-01-06T00:16:29;67.10;;;37.27;;
27209;SDS011;14721;42.668;23.386;2024-01-06T00:18:59;73.97;;;32.87;;
27209;SDS011;14721;42.668;23.386;2024-01-06T00:21:31;70.23;;;32.83;;
27209;SDS011;14721;42.668;23.386;2024-01-06T00:23:56;85.37;;;36.93;;
27209;SDS011;14721;42.668;23.386;2024-01-06T00:26:22;66.27;;;33.90;;
27209;SDS011;14721;42.668;23.386;2024-01-06T00:28:49;81.43;;;36.47;;
27209;SDS011;14721;42.668;23.386;2024-01-06T00:31:26;89.30;;;38.03;;
27209;SDS011;14721;42.668;23.386;2024-01-06T00:34:15;74.23;;;34.40;;
27209;SDS011;14721;42.668;23.386;2024-01-06T00:36:40;86.83;;;38.77;;
27209;SDS011;14721;42.668;23.386;2024-01-06T00:39:08;87.13;;;42.47;;
27209;SDS011;14721;42.668;23.386;2024-01-06T00:45:04;149.47;;;65.70;;
27209;SDS011;14721;42.668;23.386;2024-01-06T00:50:58;109.17;;;52.07;;
27209;SDS011;14721;42.668;23.386;2024-01-06T00:54:02;119.17;;;54.10;;
27209;SDS011;14721;42.668;23.386;2024-01-06T00:56:40;149.27;;;67.93;;
27209;SDS011;14721;42.668;23.386;2024-01-06T00:59:27;122.87;;;58.43;;
27209;SDS011;14721;42.668;23.386;2024-01-06T01:02:06;133.27;;;61.67;;
27209;SDS011;14721;42.668;23.386;2024-01-06T01:04:32;131.30;;;57.70;;
27209;SDS011;14721;42.668;23.386;2024-01-06T01:07:09;131.00;;;59.90;;
27209;SDS011;14721;42.668;23.386;2024-01-06T01:09:59;131.93;;;59.87;;
27209;SDS011;14721;42.668;23.386;2024-01-06T01:12:45;133.60;;;62.20;;
27209;SDS011;14721;42.668;23.386;2024-01-06T01:15:13;151.20;;;69.07;;
27209;SDS011;14721;42.668;23.386;2024-01-06T01:18:06;129.37;;;57.80;;
27209;SDS011;14721;42.668;23.386;2024-01-06T01:20:31;117.53;;;54.80;;
27209;SDS011;14721;42.668;23.386;2024-01-06T01:23:15;112.40;;;50.97;;
27209;SDS011;14721;42.668;23.386;2024-01-06T01:26:01;120.53;;;53.03;;
27209;SDS011;14721;42.668;23.386;2024-01-06T01:28:49;99.87;;;48.93;;
27209;SDS011;14721;42.668;23.386;2024-01-06T01:31:37;106.77;;;48.33;;
27209;SDS011;14721;42.668;23.386;2024-01-06T01:34:07;101.37;;;46.17;;
27209;SDS011;14721;42.668;23.386;2024-01-06T01:36:38;108.97;;;49.53;;
27209;SDS011;14721;42.668;23.386;2024-01-06T01:39:31;110.40;;;52.00;;
27209;SDS011;14721;42.668;23.386;2024-01-06T01:42:07;97.57;;;49.03;;
27209;SDS011;14721;42.668;23.386;2024-01-06T01:48:20;105.40;;;49.63;;
27209;SDS011;14721;42.668;23.386;2024-01-06T01:51:08;124.87;;;52.50;;
27209;SDS011;14721;42.668;23.386;2024-01-06T01:53:50;117.43;;;54.67;;
27209;SDS011;14721;42.668;23.386;2024-01-06T01:56:37;116.83;;;52.30;;
27209;SDS011;14721;42.668;23.386;2024-01-06T01:59:19;121.00;;;53.07;;
27209;SDS011;14721;42.668;23.386;2024-01-06T02:01:45;121.67;;;56.73;;
27209;SDS011;14721;42.668;23.386;2024-01-06T02:04:13;129.57;;;59.93;;
27209;SDS011;14721;42.668;23.386;2024-01-06T02:06:39;125.00;;;56.60;;
27209;SDS011;14721;42.668;23.386;2024-01-06T02:09:15;124.67;;;56.97;;
27209;SDS011;14721;42.668;23.386;2024-01-06T02:11:58;125.57;;;57.43;;
27209;SDS011;14721;42.668;23.386;2024-01-06T02:14:24;124.83;;;55.93;;
27209;SDS011;14721;42.668;23.386;2024-01-06T02:17:00;109.40;;;53.27;;
27209;SDS011;14721;42.668;23.386;2024-01-06T02:19:28;118.17;;;52.53;;
27209;SDS011;14721;42.668;23.386;2024-01-06T02:22:00;83.80;;;42.90;;
27209;SDS011;14721;42.668;23.386;2024-01-06T02:24:34;92.57;;;44.17;;
27209;SDS011;14721;42.668;23.386;2024-01-06T02:27:02;71.03;;;30.93;;
27209;SDS011;14721;42.668;23.386;2024-01-06T02:29:31;83.00;;;35.53;;
27209;SDS011;14721;42.668;23.386;2024-01-06T02:31:59;83.73;;;36.97;;
27209;SDS011;14721;42.668;23.386;2024-01-06T02:34:24;85.63;;;40.43;;
27209;SDS011;14721;42.668;23.386;2024-01-06T02:37:06;83.07;;;40.77;;
27209;SDS011;14721;42.668;23.386;2024-01-06T02:39:42;73.60;;;39.00;;
27209;SDS011;14721;42.668;23.386;2024-01-06T02:42:08;71.83;;;33.00;;
27209;SDS011;14721;42.668;23.386;2024-01-06T02:44:46;85.33;;;37.63;;
27209;SDS011;14721;42.668;23.386;2024-01-06T02:47:12;85.93;;;37.87;;
27209;SDS011;14721;42.668;23.386;2024-01-06T02:49:37;76.63;;;38.33;;
27209;SDS011;14721;42.668;23.386;2024-01-06T02:52:03;66.47;;;33.30;;
27209;SDS011;14721;42.668;23.386;2024-01-06T02:54:29;77.37;;;37.10;;
27209;SDS011;14721;42.668;23.386;2024-01-06T02:56:55;67.50;;;33.23;;
27209;SDS011;14721;42.668;23.386;2024-01-06T02:59:20;70.03;;;32.60;;
27209;SDS011;14721;42.668;23.386;2024-01-06T03:01:46;59.87;;;29.27;;
27209;SDS011;14721;42.668;23.386;2024-01-06T03:04:14;66.77;;;30.43;;
27209;SDS011;14721;42.668;23.386;2024-01-06T03:06:39;37.23;;;17.20;;
27209;SDS011;14721;42.668;23.386;2024-01-06T03:09:05;30.90;;;13.47;;
27209;SDS011;14721;42.668;23.386;2024-01-06T03:11:31;31.47;;;15.20;;
27209;SDS011;14721;42.668;23.386;2024-01-06T03:13:56;28.43;;;13.77;;
27209;SDS011;14721;42.668;23.386;2024-01-06T03:16:37;28.00;;;14.27;;
27209;SDS011;14721;42.668;23.386;2024-01-06T03:19:03;26.37;;;13.27;;
27209;SDS011;14721;42.668;23.386;2024-01-06T03:21:28;29.50;;;13.30;;
27209;SDS011;14721;42.668;23.386;2024-01-06T03:23:54;25.00;;;12.30;;
27209;SDS011;14721;42.668;23.386;2024-01-06T03:26:35;28.33;;;13.17;;
27209;SDS011;14721;42.668;23.386;2024-01-06T03:29:04;29.03;;;13.57;;
27209;SDS011;14721;42.668;23.386;2024-01-06T03:31:29;26.87;;;12.60;;
27209;SDS011;14721;42.668;23.386;2024-01-06T03:33:57;27.37;;;12.80;;
27209;SDS011;14721;42.668;23.386;2024-01-06T03:36:23;25.17;;;12.67;;
27209;SDS011;14721;42.668;23.386;2024-01-06T03:38:56;24.00;;;11.67;;
27209;SDS011;14721;42.668;23.386;2024-01-06T03:41:22;27.17;;;11.73;;
27209;SDS011;14721;42.668;23.386;2024-01-06T03:43:47;25.03;;;10.23;;
27209;SDS011;14721;42.668;23.386;2024-01-06T03:46:13;20.37;;;10.37;;
27209;SDS011;14721;42.668;23.386;2024-01-06T03:48:47;30.90;;;12.97;;
27209;SDS011;14721;42.668;23.386;2024-01-06T03:51:20;21.17;;;10.60;;
27209;SDS011;14721;42.668;23.386;2024-01-06T03:53:47;18.47;;;9.67;;
27209;SDS011;14721;42.668;23.386;2024-01-06T03:56:18;23.70;;;11.03;;
27209;SDS011;14721;42.668;23.386;2024-01-06T03:58:57;22.93;;;10.87;;
27209;SDS011;14721;42.668;23.386;2024-01-06T04:01:35;22.93;;;12.60;;
27209;SDS011;14721;42.668;23.386;2024-01-06T04:04:03;26.43;;;13.57;;
27209;SDS011;14721;42.668;23.386;2024-01-06T04:06:32;28.40;;;13.40;;
27209;SDS011;14721;42.668;23.386;2024-01-06T04:08:58;26.00;;;12.47;;
27209;SDS011;14721;42.668;23.386;2024-01-06T04:11:39;34.17;;;13.80;;
27209;SDS011;14721;42.668;23.386;2024-01-06T04:14:07;27.00;;;13.23;;
27209;SDS011;14721;42.668;23.386;2024-01-06T04:16:32;23.40;;;11.07;;
27209;SDS011;14721;42.668;23.386;2024-01-06T04:18:58;23.30;;;11.67;;
27209;SDS011;14721;42.668;23.386;2024-01-06T04:21:23;22.27;;;11.40;;
27209;SDS011;14721;42.668;23.386;2024-01-06T04:23:52;20.80;;;10.57;;
27209;SDS011;14721;42.668;23.386;2024-01-06T04:26:20;18.57;;;9.67;;
27209;SDS011;14721;42.668;23.386;2024-01-06T04:28:48;22.63;;;9.80;;
27209;SDS011;14721;42.668;23.386;2024-01-06T04:31:14;21.20;;;10.60;;
27209;SDS011;14721;42.668;23.386;2024-01-06T04:33:40;17.33;;;9.00;;
27209;SDS011;14721;42.668;23.386;2024-01-06T04:36:08;25.80;;;11.33;;
27209;SDS011;14721;42.668;23.386;2024-01-06T04:39:14;27.43;;;11.47;;
27209;SDS011;14721;42.668;23.386;2024-01-06T04:41:59;25.93;;;11.10;;
27209;SDS011;14721;42.668;23.386;2024-01-06T04:44:33;21.97;;;11.20;;
27209;SDS011;14721;42.668;23.386;2024-01-06T04:47:19;16.33;;;8.03;;
27209;SDS011;14721;42.668;23.386;2024-01-06T04:49:47;23.97;;;9.37;;
27209;SDS011;14721;42.668;23.386;2024-01-06T04:52:33;16.27;;;8.13;;
27209;SDS011;14721;42.668;23.386;2024-01-06T05:07:56;12.10;;;6.47;;
27209;SDS011;14721;42.668;23.386;2024-01-06T05:10:33;11.50;;;6.50;;
27209;SDS011;14721;42.668;23.386;2024-01-06T05:13:07;11.57;;;5.87;;
27209;SDS011;14721;42.668;23.386;2024-01-06T05:15:35;13.90;;;5.63;;
27209;SDS011;14721;42.668;23.386;2024-01-06T05:18:20;12.83;;;4.80;;
27209;SDS011;14721;42.668;23.386;2024-01-06T05:20:46;12.50;;;6.47;;
27209;SDS011;14721;42.668;23.386;2024-01-06T05:23:12;13.10;;;5.83;;
27209;SDS011;14721;42.668;23.386;2024-01-06T05:25:38;11.97;;;6.23;;
27209;SDS011;14721;42.668;23.386;2024-01-06T05:28:03;18.63;;;6.00;;
27209;SDS011;14721;42.668;23.386;2024-01-06T05:30:29;10.70;;;6.37;;
27209;SDS011;14721;42.668;23.386;2024-01-06T05:32:54;12.10;;;6.30;;
27209;SDS011;14721;42.668;23.386;2024-01-06T05:35:20;14.17;;;6.97;;
27209;SDS011;14721;42.668;23.386;2024-01-06T05:37:46;12.00;;;6.10;;
27209;SDS011;14721;42.668;23.386;2024-01-06T05:40:12;10.47;;;5.47;;
27209;SDS011;14721;42.668;23.386;2024-01-06T05:42:39;16.57;;;6.80;;
27209;SDS011;14721;42.668;23.386;2024-01-06T05:45:10;9.83;;;5.23;;
27209;SDS011;14721;42.668;23.386;2024-01-06T05:47:37;10.07;;;4.40;;
27209;SDS011;14721;42.668;23.386;2024-01-06T05:50:03;15.13;;;6.60;;
27209;SDS011;14721;42.668;23.386;2024-01-06T05:52:29;13.00;;;6.03;;
27209;SDS011;14721;42.668;23.386;2024-01-06T05:55:05;10.57;;;5.70;;
27209;SDS011;14721;42.668;23.386;2024-01-06T05:57:30;13.60;;;5.93;;
27209;SDS011;14721;42.668;23.386;2024-01-06T05:59:59;13.57;;;6.33;;
27209;SDS011;14721;42.668;23.386;2024-01-06T06:02:25;11.83;;;5.80;;
27209;SDS011;14721;42.668;23.386;2024-01-06T06:04:51;10.17;;;4.87;;
27209;SDS011;14721;42.668;23.386;2024-01-06T06:07:48;11.10;;;5.00;;
27209;SDS011;14721;42.668;23.386;2024-01-06T06:10:14;8.10;;;4.07;;
27209;SDS011;14721;42.668;23.386;2024-01-06T06:12:43;12.67;;;5.23;;
27209;SDS011;14721;42.668;23.386;2024-01-06T06:15:09;16.23;;;5.23;;
27209;SDS011;14721;42.668;23.386;2024-01-06T06:17:35;8.43;;;4.63;;
27209;SDS011;14721;42.668;23.386;2024-01-06T06:20:01;10.87;;;5.57;;
27209;SDS011;14721;42.668;23.386;2024-01-06T06:22:37;8.83;;;4.73;;
27209;SDS011;14721;42.668;23.386;2024-01-06T06:25:10;12.27;;;5.47;;
27209;SDS011;14721;42.668;23.386;2024-01-06T06:27:36;9.60;;;4.97;;
27209;SDS011;14721;42.668;23.386;2024-01-06T06:30:01;9.60;;;4.13;;
27209;SDS011;14721;42.668;23.386;2024-01-06T06:32:28;7.33;;;3.63;;
27209;SDS011;14721;42.668;23.386;2024-01-06T06:34:54;9.67;;;4.30;;
27209;SDS011;14721;42.668;23.386;2024-01-06T06:37:19;11.57;;;4.63;;
27209;SDS011;14721;42.668;23.386;2024-01-06T06:39:45;14.67;;;4.80;;
27209;SDS011;14721;42.668;23.386;2024-01-06T06:42:13;11.13;;;5.17;;
27209;SDS011;14721;42.668;23.386;2024-01-06T06:44:43;12.37;;;4.90;;
27209;SDS011;14721;42.668;23.386;2024-01-06T06:47:19;11.50;;;6.30;;
27209;SDS011;14721;42.668;23.386;2024-01-06T06:49:44;10.03;;;5.03;;
27209;SDS011;14721;42.668;23.386;2024-01-06T06:52:10;12.80;;;5.50;;
27209;SDS011;14721;42.668;23.386;2024-01-06T06:54:40;11.40;;;5.40;;
27209;SDS011;14721;42.668;23.386;2024-01-06T06:57:14;11.33;;;5.60;;
27209;SDS011;14721;42.668;23.386;2024-01-06T06:59:40;13.33;;;6.30;;
27209;SDS011;14721;42.668;23.386;2024-01-06T07:02:08;17.00;;;5.33;;
27209;SDS011;14721;42.668;23.386;2024-01-06T07:04:34;11.57;;;5.77;;
27209;SDS011;14721;42.668;23.386;2024-01-06T07:07:10;18.23;;;6.40;;
27209;SDS011;14721;42.668;23.386;2024-01-06T07:09:36;18.07;;;8.20;;
27209;SDS011;14721;42.668;23.386;2024-01-06T07:12:01;17.30;;;7.43;;
27209;SDS011;14721;42.668;23.386;2024-01-06T07:14:27;21.63;;;5.80;;
27209;SDS011;14721;42.668;23.386;2024-01-06T07:16:52;17.27;;;5.37;;
27209;SDS011;14721;42.668;23.386;2024-01-06T07:19:18;11.53;;;6.33;;
27209;SDS011;14721;42.668;23.386;2024-01-06T07:21:44;11.77;;;5.13;;
27209;SDS011;14721;42.668;23.386;2024-01-06T07:24:09;11.13;;;5.47;;
27209;SDS011;14721;42.668;23.386;2024-01-06T07:26:38;19.10;;;5.67;;
27209;SDS011;14721;42.668;23.386;2024-01-06T07:29:03;28.87;;;10.20;;
27209;SDS011;14721;42.668;23.386;2024-01-06T07:31:35;20.60;;;8.43;;
27209;SDS011;14721;42.668;23.386;2024-01-06T07:34:03;43.53;;;14.43;;
27209;SDS011;14721;42.668;23.386;2024-01-06T07:36:31;20.43;;;7.37;;
27209;SDS011;14721;42.668;23.386;2024-01-06T07:38:57;81.50;;;24.43;;
27209;SDS011;14721;42.668;23.386;2024-01-06T07:41:23;15.93;;;6.63;;
27209;SDS011;14721;42.668;23.386;2024-01-06T07:43:51;18.07;;;5.83;;
27209;SDS011;14721;42.668;23.386;2024-01-06T07:46:16;74.57;;;24.37;;
27209;SDS011;14721;42.668;23.386;2024-01-06T07:48:42;15.40;;;7.63;;
27209;SDS011;14721;42.668;23.386;2024-01-06T07:51:08;25.73;;;8.73;;
27209;SDS011;14721;42.668;23.386;2024-01-06T07:53:35;214.13;;;52.57;;
27209;SDS011;14721;42.668;23.386;2024-01-06T07:56:03;29.23;;;10.47;;
27209;SDS011;14721;42.668;23.386;2024-01-06T07:58:29;54.47;;;16.80;;
27209;SDS011;14721;42.668;23.386;2024-01-06T08:00:54;126.00;;;34.87;;
27209;SDS011;14721;42.668;23.386;2024-01-06T08:03:20;38.50;;;11.37;;
27209;SDS011;14721;42.668;23.386;2024-01-06T08:05:45;99.03;;;26.53;;
27209;SDS011;14721;42.668;23.386;2024-01-06T08:08:11;34.23;;;12.07;;
27209;SDS011;14721;42.668;23.386;2024-01-06T08:10:38;15.20;;;7.10;;
27209;SDS011;14721;42.668;23.386;2024-01-06T08:13:05;13.57;;;6.87;;
27209;SDS011;14721;42.668;23.386;2024-01-06T08:15:30;14.60;;;6.73;;
27209;SDS011;14721;42.668;23.386;2024-01-06T08:17:57;25.93;;;12.73;;
27209;SDS011;14721;42.668;23.386;2024-01-06T08:20:22;34.37;;;17.30;;
27209;SDS011;14721;42.668;23.386;2024-01-06T08:22:48;38.30;;;17.47;;
27209;SDS011;14721;42.668;23.386;2024-01-06T08:25:14;29.20;;;14.23;;
27209;SDS011;14721;42.668;23.386;2024-01-06T08:27:43;27.80;;;12.80;;
27209;SDS011;14721;42.668;23.386;2024-01-06T08:30:09;32.23;;;13.80;;
27209;SDS011;14721;42.668;23.386;2024-01-06T08:32:45;34.13;;;14.53;;
27209;SDS011;14721;42.668;23.386;2024-01-06T08:35:13;31.60;;;15.30;;
27209;SDS011;14721;42.668;23.386;2024-01-06T08:37:42;29.60;;;15.53;;
27209;SDS011;14721;42.668;23.386;2024-01-06T08:40:12;30.23;;;15.93;;
27209;SDS011;14721;42.668;23.386;2024-01-06T08:45:48;29.10;;;15.77;;
27209;SDS011;14721;42.668;23.386;2024-01-06T08:48:21;32.67;;;16.27;;
27209;SDS011;14721;42.668;23.386;2024-01-06T08:50:59;36.30;;;18.77;;
27209;SDS011;14721;42.668;23.386;2024-01-06T08:53:29;36.53;;;19.03;;
27209;SDS011;14721;42.668;23.386;2024-01-06T08:56:22;39.60;;;17.60;;
27209;SDS011;14721;42.668;23.386;2024-01-06T08:59:08;34.27;;;17.33;;
27209;SDS011;14721;42.668;23.386;2024-01-06T09:02:02;33.87;;;19.50;;
27209;SDS011;14721;42.668;23.386;2024-01-06T09:04:39;41.17;;;19.37;;
27209;SDS011;14721;42.668;23.386;2024-01-06T09:07:24;36.00;;;19.10;;
27209;SDS011;14721;42.668;23.386;2024-01-06T09:10:36;29.73;;;17.63;;
27209;SDS011;14721;42.668;23.386;2024-01-06T09:13:40;37.00;;;17.90;;
27209;SDS011;14721;42.668;23.386;2024-01-06T09:16:31;31.37;;;16.77;;
27209;SDS011;14721;42.668;23.386;2024-01-06T09:18:57;36.57;;;18.43;;
27209;SDS011;14721;42.668;23.386;2024-01-06T09:21:27;31.07;;;16.20;;
27209;SDS011;14721;42.668;23.386;2024-01-06T09:23:57;29.90;;;14.93;;
27209;SDS011;14721;42.668;23.386;2024-01-06T09:26:39;30.93;;;15.97;;
27209;SDS011;14721;42.668;23.386;2024-01-06T10:12:29;34.50;;;15.27;;
27209;SDS011;14721;42.668;23.386;2024-01-06T10:18:05;34.53;;;15.73;;
27209;SDS011;14721;42.668;23.386;2024-01-06T10:20:33;28.40;;;14.43;;
27209;SDS011;14721;42.668;23.386;2024-01-06T10:25:32;20.20;;;10.90;;
27209;SDS011;14721;42.668;23.386;2024-01-06T10:28:10;27.13;;;13.70;;
27209;SDS011;14721;42.668;23.386;2024-01-06T10:31:04;32.30;;;14.13;;
27209;SDS011;14721;42.668;23.386;2024-01-06T10:33:42;25.07;;;13.63;;
27209;SDS011;14721;42.668;23.386;2024-01-06T10:36:15;21.50;;;11.47;;
27209;SDS011;14721;42.668;23.386;2024-01-06T10:38:41;21.40;;;12.67;;
27209;SDS011;14721;42.668;23.386;2024-01-06T10:41:10;25.93;;;10.87;;
27209;SDS011;14721;42.668;23.386;2024-01-06T10:47:18;21.53;;;9.30;;
27209;SDS011;14721;42.668;23.386;2024-01-06T10:49:44;20.47;;;8.93;;
27209;SDS011;14721;42.668;23.386;2024-01-06T10:52:32;16.10;;;6.30;;
27209;SDS011;14721;42.668;23.386;2024-01-06T10:55:21;14.27;;;5.70;;
27209;SDS011;14721;42.668;23.386;2024-01-06T10:58:08;15.40;;;6.10;;
27209;SDS011;14721;42.668;23.386;2024-01-06T11:00:40;15.27;;;6.80;;
27209;SDS011;14721;42.668;23.386;2024-01-06T11:03:25;14.73;;;5.87;;
27209;SDS011;14721;42.668;23.386;2024-01-06T11:06:08;13.03;;;6.10;;
27209;SDS011;14721;42.668;23.386;2024-01-06T11:08:39;25.20;;;12.03;;
27209;SDS011;14721;42.668;23.386;2024-01-06T11:11:17;14.63;;;7.43;;
27209;SDS011;14721;42.668;23.386;2024-01-06T11:20:21;19.00;;;9.10;;
27209;SDS011;14721;42.668;23.386;2024-01-06T11:23:17;16.23;;;9.23;;
27209;SDS011;14721;42.668;23.386;2024-01-06T11:26:00;17.00;;;9.17;;
27209;SDS011;14721;42.668;23.386;2024-01-06T11:28:25;15.73;;;8.87;;
27209;SDS011;14721;42.668;23.386;2024-01-06T11:32:16;17.83;;;9.43;;
27209;SDS011;14721;42.668;23.386;2024-01-06T11:35:09;21.80;;;10.00;;
27209;SDS011;14721;42.668;23.386;2024-01-06T11:38:11;22.33;;;9.43;;
27209;SDS011;14721;42.668;23.386;2024-01-06T11:40:40;23.00;;;10.60;;
27209;SDS011;14721;42.668;23.386;2024-01-06T11:43:16;19.93;;;9.33;;
27209;SDS011;14721;42.668;23.386;2024-01-06T11:56:42;24.47;;;9.07;;
27209;SDS011;14721;42.668;23.386;2024-01-06T11:59:25;23.67;;;10.53;;
27209;SDS011;14721;42.668;23.386;2024-01-06T12:02:34;13.97;;;8.00;;
27209;SDS011;14721;42.668;23.386;2024-01-06T12:09:29;16.40;;;8.57;;
27209;SDS011;14721;42.668;23.386;2024-01-06T12:12:07;19.13;;;8.43;;
27209;SDS011;14721;42.668;23.386;2024-01-06T12:15:13;16.80;;;8.03;;
27209;SDS011;14721;42.668;23.386;2024-01-06T12:17:49;15.20;;;7.70;;
27209;SDS011;14721;42.668;23.386;2024-01-06T12:20:17;18.90;;;8.83;;
27209;SDS011;14721;42.668;23.386;2024-01-06T12:28:48;16.03;;;6.90;;
27209;SDS011;14721;42.668;23.386;2024-01-06T12:31:17;16.50;;;7.87;;
27209;SDS011;14721;42.668;23.386;2024-01-06T12:33:58;14.33;;;6.73;;
27209;SDS011;14721;42.668;23.386;2024-01-06T12:37:06;19.40;;;7.60;;
27209;SDS011;14721;42.668;23.386;2024-01-06T12:39:59;19.87;;;7.40;;
27209;SDS011;14721;42.668;23.386;2024-01-06T12:42:33;10.93;;;5.53;;
27209;SDS011;14721;42.668;23.386;2024-01-06T12:45:24;12.47;;;5.77;;
27209;SDS011;14721;42.668;23.386;2024-01-06T12:48:02;13.73;;;5.83;;
27209;SDS011;14721;42.668;23.386;2024-01-06T12:50:58;9.47;;;6.10;;
27209;SDS011;14721;42.668;23.386;2024-01-06T12:53:40;13.13;;;7.10;;
27209;SDS011;14721;42.668;23.386;2024-01-06T12:56:18;12.37;;;6.33;;
27209;SDS011;14721;42.668;23.386;2024-01-06T12:58:49;10.67;;;5.07;;
27209;SDS011;14721;42.668;23.386;2024-01-06T13:01:37;11.37;;;5.03;;
27209;SDS011;14721;42.668;23.386;2024-01-06T13:04:16;11.03;;;5.03;;
27209;SDS011;14721;42.668;23.386;2024-01-06T13:07:02;8.27;;;3.63;;
27209;SDS011;14721;42.668;23.386;2024-01-06T13:15:56;12.47;;;4.23;;
27209;SDS011;14721;42.668;23.386;2024-01-06T13:18:32;6.23;;;3.83;;
27209;SDS011;14721;42.668;23.386;2024-01-06T14:12:03;8.77;;;5.10;;
27209;SDS011;14721;42.668;23.386;2024-01-06T14:50:00;19.97;;;9.90;;
27209;SDS011;14721;42.668;23.386;2024-01-06T14:52:34;17.03;;;8.63;;
27209;SDS011;14721;42.668;23.386;2024-01-06T14:55:00;21.00;;;9.53;;
27209;SDS011;14721;42.668;23.386;2024-01-06T14:57:25;20.23;;;9.03;;
27209;SDS011;14721;42.668;23.386;2024-01-06T14:59:51;20.27;;;8.73;;
27209;SDS011;14721;42.668;23.386;2024-01-06T15:02:40;16.87;;;6.77;;
27209;SDS011;14721;42.668;23.386;2024-01-06T15:05:22;19.57;;;7.67;;
27209;SDS011;14721;42.668;23.386;2024-01-06T15:08:10;16.20;;;7.50;;
27209;SDS011;14721;42.668;23.386;2024-01-06T15:10:39;14.50;;;7.70;;
27209;SDS011;14721;42.668;23.386;2024-01-06T15:13:10;17.00;;;6.33;;
27209;SDS011;14721;42.668;23.386;2024-01-06T15:16:07;14.47;;;6.57;;
27209;SDS011;14721;42.668;23.386;2024-01-06T15:18:45;25.00;;;7.60;;
27209;SDS011;14721;42.668;23.386;2024-01-06T15:21:14;17.00;;;6.63;;
27209;SDS011;14721;42.668;23.386;2024-01-06T15:23:50;28.97;;;7.50;;
27209;SDS011;14721;42.668;23.386;2024-01-06T15:26:25;13.43;;;7.17;;
27209;SDS011;14721;42.668;23.386;2024-01-06T15:28:59;18.87;;;7.07;;
27209;SDS011;14721;42.668;23.386;2024-01-06T15:31:59;17.47;;;6.37;;
27209;SDS011;14721;42.668;23.386;2024-01-06T15:34:34;16.00;;;6.63;;
27209;SDS011;14721;42.668;23.386;2024-01-06T15:37:00;13.23;;;6.70;;
27209;SDS011;14721;42.668;23.386;2024-01-06T15:39:36;18.73;;;8.00;;
27209;SDS011;14721;42.668;23.386;2024-01-06T15:42:05;23.90;;;8.30;;
27209;SDS011;14721;42.668;23.386;2024-01-06T15:44:54;23.53;;;8.13;;
27209;SDS011;14721;42.668;23.386;2024-01-06T15:47:20;21.37;;;8.03;;
27209;SDS011;14721;42.668;23.386;2024-01-06T15:50:00;30.80;;;9.33;;
27209;SDS011;14721;42.668;23.386;2024-01-06T15:52:36;17.07;;;7.70;;
27209;SDS011;14721;42.668;23.386;2024-01-06T15:55:03;20.83;;;8.53;;
27209;SDS011;14721;42.668;23.386;2024-01-06T15:57:32;15.80;;;7.30;;
27209;SDS011;14721;42.668;23.386;2024-01-06T16:00:14;14.77;;;5.80;;
27209;SDS011;14721;42.668;23.386;2024-01-06T16:02:44;15.73;;;5.87;;
27209;SDS011;14721;42.668;23.386;2024-01-06T16:05:09;16.23;;;5.67;;
27209;SDS011;14721;42.668;23.386;2024-01-06T16:07:41;14.50;;;6.03;;
27209;SDS011;14721;42.668;23.386;2024-01-06T16:10:17;10.93;;;4.73;;
27209;SDS011;14721;42.668;23.386;2024-01-06T16:12:59;13.50;;;6.87;;
27209;SDS011;14721;42.668;23.386;2024-01-06T16:15:43;18.27;;;7.13;;
27209;SDS011;14721;42.668;23.386;2024-01-06T16:18:20;15.67;;;5.83;;
27209;SDS011;14721;42.668;23.386;2024-01-06T16:20:49;17.63;;;5.50;;
27209;SDS011;14721;42.668;23.386;2024-01-06T16:23:14;12.33;;;5.07;;
27209;SDS011;14721;42.668;23.386;2024-01-06T16:25:42;19.53;;;7.70;;
27209;SDS011;14721;42.668;23.386;2024-01-06T16:28:08;16.27;;;6.23;;
27209;SDS011;14721;42.668;23.386;2024-01-06T16:30:37;24.33;;;8.80;;
27209;SDS011;14721;42.668;23.386;2024-01-06T16:33:03;18.37;;;7.03;;
27209;SDS011;14721;42.668;23.386;2024-01-06T16:35:30;20.73;;;8.23;;
27209;SDS011;14721;42.668;23.386;2024-01-06T16:37:55;18.90;;;7.67;;
27209;SDS011;14721;42.668;23.386;2024-01-06T16:40:22;20.63;;;8.97;;
27209;SDS011;14721;42.668;23.386;2024-01-06T16:42:48;18.97;;;9.00;;
27209;SDS011;14721;42.668;23.386;2024-01-06T16:45:17;25.97;;;9.97;;
27209;SDS011;14721;42.668;23.386;2024-01-06T16:47:42;22.57;;;8.80;;
27209;SDS011;14721;42.668;23.386;2024-01-06T16:50:08;20.53;;;9.87;;
27209;SDS011;14721;42.668;23.386;2024-01-06T16:52:33;24.47;;;8.93;;
27209;SDS011;14721;42.668;23.386;2024-01-06T16:54:59;27.13;;;9.50;;
27209;SDS011;14721;42.668;23.386;2024-01-06T16:57:25;23.27;;;9.97;;
27209;SDS011;14721;42.668;23.386;2024-01-06T16:59:53;25.30;;;10.00;;
27209;SDS011;14721;42.668;23.386;2024-01-06T17:02:19;25.50;;;10.03;;
27209;SDS011;14721;42.668;23.386;2024-01-06T17:04:45;21.63;;;10.80;;
27209;SDS011;14721;42.668;23.386;2024-01-06T17:07:10;27.97;;;10.50;;
27209;SDS011;14721;42.668;23.386;2024-01-06T17:09:36;27.17;;;11.47;;
27209;SDS011;14721;42.668;23.386;2024-01-06T17:12:02;22.63;;;9.73;;
27209;SDS011;14721;42.668;23.386;2024-01-06T17:14:28;27.17;;;11.60;;
27209;SDS011;14721;42.668;23.386;2024-01-06T17:16:58;18.83;;;8.90;;
27209;SDS011;14721;42.668;23.386;2024-01-06T17:19:23;16.87;;;8.07;;
27209;SDS011;14721;42.668;23.386;2024-01-06T17:21:49;20.87;;;9.80;;
27209;SDS011;14721;42.668;23.386;2024-01-06T17:24:14;20.97;;;9.10;;
27209;SDS011;14721;42.668;23.386;2024-01-06T17:26:40;22.30;;;9.67;;
27209;SDS011;14721;42.668;23.386;2024-01-06T17:29:06;24.10;;;9.17;;
27209;SDS011;14721;42.668;23.386;2024-01-06T17:31:32;17.63;;;7.83;;
27209;SDS011;14721;42.668;23.386;2024-01-06T17:33:57;14.50;;;7.33;;
27209;SDS011;14721;42.668;23.386;2024-01-06T17:36:23;15.37;;;7.07;;
27209;SDS011;14721;42.668;23.386;2024-01-06T17:38:49;14.20;;;6.80;;
27209;SDS011;14721;42.668;23.386;2024-01-06T17:41:14;21.63;;;7.97;;
27209;SDS011;14721;42.668;23.386;2024-01-06T17:43:45;18.80;;;7.60;;
27209;SDS011;14721;42.668;23.386;2024-01-06T17:46:13;22.90;;;8.03;;
27209;SDS011;14721;42.668;23.386;2024-01-06T17:48:39;14.77;;;6.33;;
27209;SDS011;14721;42.668;23.386;2024-01-06T17:51:04;16.40;;;7.33;;
27209;SDS011;14721;42.668;23.386;2024-01-06T17:53:30;20.93;;;8.43;;
27209;SDS011;14721;42.668;23.386;2024-01-06T17:55:56;11.83;;;7.23;;
27209;SDS011;14721;42.668;23.386;2024-01-06T17:58:24;11.60;;;5.80;;
27209;SDS011;14721;42.668;23.386;2024-01-06T18:00:50;8.83;;;5.57;;
27209;SDS011;14721;42.668;23.386;2024-01-06T18:03:16;13.90;;;6.53;;
27209;SDS011;14721;42.668;23.386;2024-01-06T18:05:41;14.27;;;6.63;;
27209;SDS011;14721;42.668;23.386;2024-01-06T18:08:07;11.90;;;5.70;;
27209;SDS011;14721;42.668;23.386;2024-01-06T18:10:32;13.00;;;5.90;;